sensor_id;sensor_type;location;lat;lon;timestamp;temperature;humidity
60723;DHT22;46574;52.818;6.516;2024-02-21T00:02:09;10.10;99.90
60723;DHT22;46574;52.818;6.516;2024-02-21T00:04:35;10.10;99.90
60723;DHT22;46574;52.818;6.516;2024-02-21T00:07:02;10.10;99.90
60723;DHT22;46574;52.818;6.516;2024-02-21T00:09:27;10.10;99.90
60723;DHT22;46574;52.818;6.516;2024-02-21T00:11:53;10.10;99.90
60723;DHT22;46574;52.818;6.516;2024-02-21T00:14:19;10.10;99.90
60723;DHT22;46574;52.818;6.516;2024-02-21T00:16:45;10.10;99.90
60723;DHT22;46574;52.818;6.516;2024-02-21T00:19:11;10.10;99.90
60723;DHT22;46574;52.818;6.516;2024-02-21T00:21:36;10.10;99.90
60723;DHT22;46574;52.818;6.516;2024-02-21T00:24:02;10.10;99.90
60723;DHT22;46574;52.818;6.516;2024-02-21T00:26:27;10.10;99.90
60723;DHT22;46574;52.818;6.516;2024-02-21T00:28:53;10.10;99.90
60723;DHT22;46574;52.818;6.516;2024-02-21T00:31:19;10.10;99.90
60723;DHT22;46574;52.818;6.516;2024-02-21T00:33:44;10.10;99.90
60723;DHT22;46574;52.818;6.516;2024-02-21T00:36:10;10.10;99.90
60723;DHT22;46574;52.818;6.516;2024-02-21T00:38:35;10.10;99.90
60723;DHT22;46574;52.818;6.516;2024-02-21T00:41:01;10.10;99.90
60723;DHT22;46574;52.818;6.516;2024-02-21T00:43:27;10.00;99.90
60723;DHT22;46574;52.818;6.516;2024-02-21T00:45:52;10.00;99.90
60723;DHT22;46574;52.818;6.516;2024-02-21T00:48:18;10.00;99.90
60723;DHT22;46574;52.818;6.516;2024-02-21T00:50:44;10.00;99.90
60723;DHT22;46574;52.818;6.516;2024-02-21T00:53:09;10.00;99.90
60723;DHT22;46574;52.818;6.516;2024-02-21T00:55:35;10.00;99.90
60723;DHT22;46574;52.818;6.516;2024-02-21T00:58:01;10.00;99.90
60723;DHT22;46574;52.818;6.516;2024-02-21T01:00:27;10.00;99.90
60723;DHT22;46574;52.818;6.516;2024-02-21T01:02:52;9.90;99.90
60723;DHT22;46574;52.818;6.516;2024-02-21T01:05:18;9.90;99.90
60723;DHT22;46574;52.818;6.516;2024-02-21T01:07:44;9.90;99.90
60723;DHT22;46574;52.818;6.516;2024-02-21T01:10:10;9.80;99.90
60723;DHT22;46574;52.818;6.516;2024-02-21T01:12:36;9.80;99.90
60723;DHT22;46574;52.818;6.516;2024-02-21T01:15:02;9.80;99.90
60723;DHT22;46574;52.818;6.516;2024-02-21T01:17:28;9.80;99.90
60723;DHT22;46574;52.818;6.516;2024-02-21T01:19:54;9.70;99.90
60723;DHT22;46574;52.818;6.516;2024-02-21T01:22:19;9.70;99.90
60723;DHT22;46574;52.818;6.516;2024-02-21T01:24:45;9.70;99.90
60723;DHT22;46574;52.818;6.516;2024-02-21T01:27:10;9.70;99.90
60723;DHT22;46574;52.818;6.516;2024-02-21T01:29:36;9.60;99.90
60723;DHT22;46574;52.818;6.516;2024-02-21T01:32:02;9.70;99.90
60723;DHT22;46574;52.818;6.516;2024-02-21T01:34:27;9.70;99.90
60723;DHT22;46574;52.818;6.516;2024-02-21T01:36:53;9.70;99.90
60723;DHT22;46574;52.818;6.516;2024-02-21T01:39:19;9.60;99.90
60723;DHT22;46574;52.818;6.516;2024-02-21T01:41:44;9.60;99.90
60723;DHT22;46574;52.818;6.516;2024-02-21T01:44:10;9.60;99.90
60723;DHT22;46574;52.818;6.516;2024-02-21T01:46:36;9.60;99.90
60723;DHT22;46574;52.818;6.516;2024-02-21T01:49:02;9.60;99.90
60723;DHT22;46574;52.818;6.516;2024-02-21T01:51:28;9.70;99.90
60723;DHT22;46574;52.818;6.516;2024-02-21T01:53:55;9.60;99.90
60723;DHT22;46574;52.818;6.516;2024-02-21T01:56:22;9.60;99.90
60723;DHT22;46574;52.818;6.516;2024-02-21T01:58:48;9.60;99.90
60723;DHT22;46574;52.818;6.516;2024-02-21T02:01:14;9.60;99.90
60723;DHT22;46574;52.818;6.516;2024-02-21T02:03:40;9.60;99.90
60723;DHT22;46574;52.818;6.516;2024-02-21T02:06:06;9.60;99.90
60723;DHT22;46574;52.818;6.516;2024-02-21T02:08:32;9.60;99.90
60723;DHT22;46574;52.818;6.516;2024-02-21T02:10:59;9.60;99.90
60723;DHT22;46574;52.818;6.516;2024-02-21T02:13:25;9.60;99.90
60723;DHT22;46574;52.818;6.516;2024-02-21T02:15:50;9.60;99.90
60723;DHT22;46574;52.818;6.516;2024-02-21T02:18:18;9.60;99.90
60723;DHT22;46574;52.818;6.516;2024-02-21T02:20:44;9.60;99.90
60723;DHT22;46574;52.818;6.516;2024-02-21T02:23:26;9.60;99.90
60723;DHT22;46574;52.818;6.516;2024-02-21T02:25:53;9.50;99.90
60723;DHT22;46574;52.818;6.516;2024-02-21T02:28:19;9.50;99.90
60723;DHT22;46574;52.818;6.516;2024-02-21T02:30:45;9.50;99.90
60723;DHT22;46574;52.818;6.516;2024-02-21T02:33:11;9.50;99.90
60723;DHT22;46574;52.818;6.516;2024-02-21T02:35:37;9.50;99.90
60723;DHT22;46574;52.818;6.516;2024-02-21T02:38:03;9.50;99.90
60723;DHT22;46574;52.818;6.516;2024-02-21T02:40:30;9.50;99.90
60723;DHT22;46574;52.818;6.516;2024-02-21T02:42:56;9.40;99.90
60723;DHT22;46574;52.818;6.516;2024-02-21T02:45:23;9.40;99.90
60723;DHT22;46574;52.818;6.516;2024-02-21T02:47:55;9.40;99.90
60723;DHT22;46574;52.818;6.516;2024-02-21T02:50:26;9.40;99.90
60723;DHT22;46574;52.818;6.516;2024-02-21T02:52:52;9.40;99.90
60723;DHT22;46574;52.818;6.516;2024-02-21T02:55:18;9.40;99.90
60723;DHT22;46574;52.818;6.516;2024-02-21T02:57:44;9.40;99.90
60723;DHT22;46574;52.818;6.516;2024-02-21T03:00:14;9.40;99.90
60723;DHT22;46574;52.818;6.516;2024-02-21T03:02:42;9.40;99.90
60723;DHT22;46574;52.818;6.516;2024-02-21T03:05:16;9.30;99.90
60723;DHT22;46574;52.818;6.516;2024-02-21T03:07:43;9.30;99.90
60723;DHT22;46574;52.818;6.516;2024-02-21T03:10:10;9.30;99.90
60723;DHT22;46574;52.818;6.516;2024-02-21T03:12:36;9.30;99.90
60723;DHT22;46574;52.818;6.516;2024-02-21T03:15:03;9.30;99.90
60723;DHT22;46574;52.818;6.516;2024-02-21T03:17:30;9.30;99.90
60723;DHT22;46574;52.818;6.516;2024-02-21T03:19:55;9.30;99.90
60723;DHT22;46574;52.818;6.516;2024-02-21T03:22:22;9.30;99.90
60723;DHT22;46574;52.818;6.516;2024-02-21T03:24:48;9.30;99.90
60723;DHT22;46574;52.818;6.516;2024-02-21T03:27:13;9.30;99.90
60723;DHT22;46574;52.818;6.516;2024-02-21T03:29:39;9.30;99.90
60723;DHT22;46574;52.818;6.516;2024-02-21T03:32:05;9.30;99.90
60723;DHT22;46574;52.818;6.516;2024-02-21T03:34:30;9.30;99.90
60723;DHT22;46574;52.818;6.516;2024-02-21T03:36:56;9.30;99.90
60723;DHT22;46574;52.818;6.516;2024-02-21T03:39:22;9.30;99.90
60723;DHT22;46574;52.818;6.516;2024-02-21T03:41:48;9.30;99.90
60723;DHT22;46574;52.818;6.516;2024-02-21T03:44:13;9.30;99.90
60723;DHT22;46574;52.818;6.516;2024-02-21T03:46:39;9.30;99.90
60723;DHT22;46574;52.818;6.516;2024-02-21T03:49:04;9.30;99.90
60723;DHT22;46574;52.818;6.516;2024-02-21T03:51:30;9.30;99.90
60723;DHT22;46574;52.818;6.516;2024-02-21T03:53:56;9.30;99.90
60723;DHT22;46574;52.818;6.516;2024-02-21T03:56:22;9.30;99.90
60723;DHT22;46574;52.818;6.516;2024-02-21T03:58:48;9.30;99.90
60723;DHT22;46574;52.818;6.516;2024-02-21T04:01:15;9.30;99.90
60723;DHT22;46574;52.818;6.516;2024-02-21T04:03:41;9.30;99.90
60723;DHT22;46574;52.818;6.516;2024-02-21T04:06:07;9.30;99.90
60723;DHT22;46574;52.818;6.516;2024-02-21T04:08:33;9.30;99.90
60723;DHT22;46574;52.818;6.516;2024-02-21T04:10:59;9.30;99.90
60723;DHT22;46574;52.818;6.516;2024-02-21T04:13:24;9.30;99.90
60723;DHT22;46574;52.818;6.516;2024-02-21T04:15:51;9.30;99.90
60723;DHT22;46574;52.818;6.516;2024-02-21T04:18:16;9.30;99.90
60723;DHT22;46574;52.818;6.516;2024-02-21T04:20:42;9.30;99.90
60723;DHT22;46574;52.818;6.516;2024-02-21T04:23:08;9.30;99.90
60723;DHT22;46574;52.818;6.516;2024-02-21T04:25:33;9.30;99.90
60723;DHT22;46574;52.818;6.516;2024-02-21T04:27:59;9.30;99.90
60723;DHT22;46574;52.818;6.516;2024-02-21T04:30:25;9.30;99.90
60723;DHT22;46574;52.818;6.516;2024-02-21T04:32:50;9.30;99.90
60723;DHT22;46574;52.818;6.516;2024-02-21T04:35:16;9.30;99.90
60723;DHT22;46574;52.818;6.516;2024-02-21T04:37:42;9.30;99.90
60723;DHT22;46574;52.818;6.516;2024-02-21T04:40:08;9.30;99.90
60723;DHT22;46574;52.818;6.516;2024-02-21T04:42:34;9.30;99.90
60723;DHT22;46574;52.818;6.516;2024-02-21T04:45:00;9.30;99.90
60723;DHT22;46574;52.818;6.516;2024-02-21T04:47:26;9.30;99.90
60723;DHT22;46574;52.818;6.516;2024-02-21T04:49:52;9.30;99.90
60723;DHT22;46574;52.818;6.516;2024-02-21T04:52:17;9.30;99.90
60723;DHT22;46574;52.818;6.516;2024-02-21T04:54:43;9.30;99.90
60723;DHT22;46574;52.818;6.516;2024-02-21T04:57:09;9.30;99.90
60723;DHT22;46574;52.818;6.516;2024-02-21T04:59:36;9.30;99.90
60723;DHT22;46574;52.818;6.516;2024-02-21T05:02:02;9.30;99.90
60723;DHT22;46574;52.818;6.516;2024-02-21T05:04:27;9.30;99.90
60723;DHT22;46574;52.818;6.516;2024-02-21T05:06:53;9.30;99.90
60723;DHT22;46574;52.818;6.516;2024-02-21T05:09:21;9.30;99.90
60723;DHT22;46574;52.818;6.516;2024-02-21T05:11:46;9.30;99.90
60723;DHT22;46574;52.818;6.516;2024-02-21T05:14:13;9.30;99.90
60723;DHT22;46574;52.818;6.516;2024-02-21T05:16:39;9.30;99.90
60723;DHT22;46574;52.818;6.516;2024-02-21T05:19:05;9.30;99.90
60723;DHT22;46574;52.818;6.516;2024-02-21T05:21:31;9.30;99.90
60723;DHT22;46574;52.818;6.516;2024-02-21T05:23:56;9.30;99.90
60723;DHT22;46574;52.818;6.516;2024-02-21T05:26:26;9.30;99.90
60723;DHT22;46574;52.818;6.516;2024-02-21T05:28:52;9.30;99.90
60723;DHT22;46574;52.818;6.516;2024-02-21T05:31:19;9.30;99.90
60723;DHT22;46574;52.818;6.516;2024-02-21T05:33:45;9.40;99.90
60723;DHT22;46574;52.818;6.516;2024-02-21T05:36:11;9.40;99.90
60723;DHT22;46574;52.818;6.516;2024-02-21T05:38:37;9.30;99.90
60723;DHT22;46574;52.818;6.516;2024-02-21T05:41:04;9.40;99.90
60723;DHT22;46574;52.818;6.516;2024-02-21T05:43:30;9.40;99.90
60723;DHT22;46574;52.818;6.516;2024-02-21T05:45:56;9.40;99.90
60723;DHT22;46574;52.818;6.516;2024-02-21T05:48:24;9.40;99.90
60723;DHT22;46574;52.818;6.516;2024-02-21T05:50:50;9.40;99.90
60723;DHT22;46574;52.818;6.516;2024-02-21T05:53:16;9.40;99.90
60723;DHT22;46574;52.818;6.516;2024-02-21T05:55:42;9.40;99.90
60723;DHT22;46574;52.818;6.516;2024-02-21T05:58:07;9.40;99.90
60723;DHT22;46574;52.818;6.516;2024-02-21T06:00:37;9.40;99.90
60723;DHT22;46574;52.818;6.516;2024-02-21T06:03:03;9.40;99.90
60723;DHT22;46574;52.818;6.516;2024-02-21T06:05:28;9.40;99.90
60723;DHT22;46574;52.818;6.516;2024-02-21T06:07:54;9.40;99.90
60723;DHT22;46574;52.818;6.516;2024-02-21T06:10:20;9.40;99.90
60723;DHT22;46574;52.818;6.516;2024-02-21T06:12:45;9.40;99.90
60723;DHT22;46574;52.818;6.516;2024-02-21T06:15:11;9.40;99.90
60723;DHT22;46574;52.818;6.516;2024-02-21T06:17:37;9.40;99.90
60723;DHT22;46574;52.818;6.516;2024-02-21T06:20:02;9.40;99.90
60723;DHT22;46574;52.818;6.516;2024-02-21T06:22:29;9.40;99.90
60723;DHT22;46574;52.818;6.516;2024-02-21T06:24:55;9.40;99.90
60723;DHT22;46574;52.818;6.516;2024-02-21T06:27:21;9.40;99.90
60723;DHT22;46574;52.818;6.516;2024-02-21T06:29:47;9.40;99.90
60723;DHT22;46574;52.818;6.516;2024-02-21T06:32:12;9.40;99.90
60723;DHT22;46574;52.818;6.516;2024-02-21T06:34:38;9.40;99.90
60723;DHT22;46574;52.818;6.516;2024-02-21T06:37:03;9.40;99.90
60723;DHT22;46574;52.818;6.516;2024-02-21T06:39:29;9.40;99.90
60723;DHT22;46574;52.818;6.516;2024-02-21T06:41:55;9.40;99.90
60723;DHT22;46574;52.818;6.516;2024-02-21T06:44:21;9.40;99.90
60723;DHT22;46574;52.818;6.516;2024-02-21T06:46:47;9.40;99.90
60723;DHT22;46574;52.818;6.516;2024-02-21T06:49:12;9.40;99.90
60723;DHT22;46574;52.818;6.516;2024-02-21T06:51:44;9.40;99.90
60723;DHT22;46574;52.818;6.516;2024-02-21T06:54:10;9.40;99.90
60723;DHT22;46574;52.818;6.516;2024-02-21T06:56:36;9.40;99.90
60723;DHT22;46574;52.818;6.516;2024-02-21T06:59:03;9.40;99.90
60723;DHT22;46574;52.818;6.516;2024-02-21T07:01:29;9.40;99.90
60723;DHT22;46574;52.818;6.516;2024-02-21T07:03:55;9.40;99.90
60723;DHT22;46574;52.818;6.516;2024-02-21T07:06:21;9.40;99.90
60723;DHT22;46574;52.818;6.516;2024-02-21T07:08:46;9.50;99.90
60723;DHT22;46574;52.818;6.516;2024-02-21T07:11:12;9.40;99.90
60723;DHT22;46574;52.818;6.516;2024-02-21T07:13:38;9.40;99.90
60723;DHT22;46574;52.818;6.516;2024-02-21T07:16:03;9.40;99.90
60723;DHT22;46574;52.818;6.516;2024-02-21T07:18:29;9.40;99.90
60723;DHT22;46574;52.818;6.516;2024-02-21T07:20:55;9.40;99.90
60723;DHT22;46574;52.818;6.516;2024-02-21T07:23:21;9.40;99.90
60723;DHT22;46574;52.818;6.516;2024-02-21T07:25:46;9.40;99.90
60723;DHT22;46574;52.818;6.516;2024-02-21T07:28:12;9.40;99.90
60723;DHT22;46574;52.818;6.516;2024-02-21T07:30:39;9.40;99.90
60723;DHT22;46574;52.818;6.516;2024-02-21T07:33:05;9.40;99.90
60723;DHT22;46574;52.818;6.516;2024-02-21T07:35:32;9.40;99.90
60723;DHT22;46574;52.818;6.516;2024-02-21T07:37:58;9.40;99.90
60723;DHT22;46574;52.818;6.516;2024-02-21T07:40:24;9.40;99.90
60723;DHT22;46574;52.818;6.516;2024-02-21T07:42:49;9.40;99.90
60723;DHT22;46574;52.818;6.516;2024-02-21T07:45:15;9.40;99.90
60723;DHT22;46574;52.818;6.516;2024-02-21T07:47:41;9.40;99.90
60723;DHT22;46574;52.818;6.516;2024-02-21T07:50:07;9.40;99.90
60723;DHT22;46574;52.818;6.516;2024-02-21T07:52:32;9.40;99.90
60723;DHT22;46574;52.818;6.516;2024-02-21T07:54:58;9.40;99.90
60723;DHT22;46574;52.818;6.516;2024-02-21T07:57:24;9.40;99.90
60723;DHT22;46574;52.818;6.516;2024-02-21T07:59:50;9.50;99.90
60723;DHT22;46574;52.818;6.516;2024-02-21T08:02:16;9.40;99.90
60723;DHT22;46574;52.818;6.516;2024-02-21T08:04:42;9.40;99.90
60723;DHT22;46574;52.818;6.516;2024-02-21T08:07:08;9.40;99.90
60723;DHT22;46574;52.818;6.516;2024-02-21T08:09:35;9.40;99.90
60723;DHT22;46574;52.818;6.516;2024-02-21T08:12:02;9.40;99.90
60723;DHT22;46574;52.818;6.516;2024-02-21T08:14:27;9.40;99.90
60723;DHT22;46574;52.818;6.516;2024-02-21T08:16:53;9.40;99.90
60723;DHT22;46574;52.818;6.516;2024-02-21T08:19:20;9.40;99.90
60723;DHT22;46574;52.818;6.516;2024-02-21T08:21:46;9.40;99.90
60723;DHT22;46574;52.818;6.516;2024-02-21T08:24:15;9.30;99.90
60723;DHT22;46574;52.818;6.516;2024-02-21T08:26:42;9.30;99.90
60723;DHT22;46574;52.818;6.516;2024-02-21T08:29:07;9.30;99.90
60723;DHT22;46574;52.818;6.516;2024-02-21T08:31:33;9.40;99.90
60723;DHT22;46574;52.818;6.516;2024-02-21T08:34:00;9.40;99.90
60723;DHT22;46574;52.818;6.516;2024-02-21T08:36:33;9.40;99.90
60723;DHT22;46574;52.818;6.516;2024-02-21T08:38:59;9.40;99.90
60723;DHT22;46574;52.818;6.516;2024-02-21T08:41:25;9.40;99.90
60723;DHT22;46574;52.818;6.516;2024-02-21T08:43:51;9.40;99.90
60723;DHT22;46574;52.818;6.516;2024-02-21T08:46:17;9.40;99.90
60723;DHT22;46574;52.818;6.516;2024-02-21T08:48:43;9.50;99.90
60723;DHT22;46574;52.818;6.516;2024-02-21T08:51:15;9.50;99.90
60723;DHT22;46574;52.818;6.516;2024-02-21T08:53:40;9.50;99.90
60723;DHT22;46574;52.818;6.516;2024-02-21T08:56:06;9.50;99.90
60723;DHT22;46574;52.818;6.516;2024-02-21T08:58:36;9.50;99.90
60723;DHT22;46574;52.818;6.516;2024-02-21T09:01:03;9.50;99.90
60723;DHT22;46574;52.818;6.516;2024-02-21T09:03:33;9.50;99.90
60723;DHT22;46574;52.818;6.516;2024-02-21T09:06:00;9.50;99.90
60723;DHT22;46574;52.818;6.516;2024-02-21T09:08:26;9.50;99.90
60723;DHT22;46574;52.818;6.516;2024-02-21T09:10:52;9.60;99.90
60723;DHT22;46574;52.818;6.516;2024-02-21T09:13:18;9.60;99.90
60723;DHT22;46574;52.818;6.516;2024-02-21T09:15:43;9.60;99.90
60723;DHT22;46574;52.818;6.516;2024-02-21T09:18:09;9.60;99.90
60723;DHT22;46574;52.818;6.516;2024-02-21T09:20:35;9.60;99.90
60723;DHT22;46574;52.818;6.516;2024-02-21T09:23:01;9.70;99.90
60723;DHT22;46574;52.818;6.516;2024-02-21T09:25:26;9.70;99.90
60723;DHT22;46574;52.818;6.516;2024-02-21T09:27:54;9.70;99.90
60723;DHT22;46574;52.818;6.516;2024-02-21T09:30:20;9.70;99.90
60723;DHT22;46574;52.818;6.516;2024-02-21T09:32:46;9.70;99.90
60723;DHT22;46574;52.818;6.516;2024-02-21T09:35:12;9.70;99.90
60723;DHT22;46574;52.818;6.516;2024-02-21T09:37:39;9.80;99.90
60723;DHT22;46574;52.818;6.516;2024-02-21T09:40:05;9.80;99.90
60723;DHT22;46574;52.818;6.516;2024-02-21T09:42:41;9.80;99.90
60723;DHT22;46574;52.818;6.516;2024-02-21T09:45:20;9.80;99.90
60723;DHT22;46574;52.818;6.516;2024-02-21T09:50:49;9.90;99.90
60723;DHT22;46574;52.818;6.516;2024-02-21T09:53:16;10.00;99.90
60723;DHT22;46574;52.818;6.516;2024-02-21T09:55:43;10.00;99.90
60723;DHT22;46574;52.818;6.516;2024-02-21T09:58:09;10.00;99.90
60723;DHT22;46574;52.818;6.516;2024-02-21T10:00:38;10.00;99.90
60723;DHT22;46574;52.818;6.516;2024-02-21T10:03:03;10.00;99.90
60723;DHT22;46574;52.818;6.516;2024-02-21T10:05:35;10.00;99.90
60723;DHT22;46574;52.818;6.516;2024-02-21T10:08:01;10.00;99.90
60723;DHT22;46574;52.818;6.516;2024-02-21T10:10:27;10.00;99.90
60723;DHT22;46574;52.818;6.516;2024-02-21T10:12:55;10.10;99.90
60723;DHT22;46574;52.818;6.516;2024-02-21T10:15:22;10.10;99.90
60723;DHT22;46574;52.818;6.516;2024-02-21T10:17:48;10.10;99.90
60723;DHT22;46574;52.818;6.516;2024-02-21T10:20:14;10.00;99.90
60723;DHT22;46574;52.818;6.516;2024-02-21T10:22:40;10.00;99.90
60723;DHT22;46574;52.818;6.516;2024-02-21T10:25:10;10.00;99.90
60723;DHT22;46574;52.818;6.516;2024-02-21T10:27:40;10.10;99.90
60723;DHT22;46574;52.818;6.516;2024-02-21T10:30:07;10.10;99.90
60723;DHT22;46574;52.818;6.516;2024-02-21T10:32:33;10.10;99.90
60723;DHT22;46574;52.818;6.516;2024-02-21T10:35:03;10.10;99.90
60723;DHT22;46574;52.818;6.516;2024-02-21T10:37:32;10.10;99.90
60723;DHT22;46574;52.818;6.516;2024-02-21T10:39:57;10.20;99.90
60723;DHT22;46574;52.818;6.516;2024-02-21T10:42:28;10.10;99.90
60723;DHT22;46574;52.818;6.516;2024-02-21T10:45:00;10.20;99.90
60723;DHT22;46574;52.818;6.516;2024-02-21T10:47:31;10.20;99.90
60723;DHT22;46574;52.818;6.516;2024-02-21T10:50:02;10.30;99.90
60723;DHT22;46574;52.818;6.516;2024-02-21T10:52:44;10.40;99.90
60723;DHT22;46574;52.818;6.516;2024-02-21T10:55:26;10.40;99.90
60723;DHT22;46574;52.818;6.516;2024-02-21T10:57:52;10.40;99.90
60723;DHT22;46574;52.818;6.516;2024-02-21T11:00:18;10.40;99.90
60723;DHT22;46574;52.818;6.516;2024-02-21T11:02:46;10.40;99.90
60723;DHT22;46574;52.818;6.516;2024-02-21T11:05:13;10.30;99.90
60723;DHT22;46574;52.818;6.516;2024-02-21T11:07:39;10.30;99.90
60723;DHT22;46574;52.818;6.516;2024-02-21T11:10:19;10.30;99.90
60723;DHT22;46574;52.818;6.516;2024-02-21T11:12:45;10.30;99.90
60723;DHT22;46574;52.818;6.516;2024-02-21T11:15:11;10.30;99.90
60723;DHT22;46574;52.818;6.516;2024-02-21T11:17:37;10.40;99.90
60723;DHT22;46574;52.818;6.516;2024-02-21T11:20:15;10.30;99.90
60723;DHT22;46574;52.818;6.516;2024-02-21T11:22:44;10.40;99.90
60723;DHT22;46574;52.818;6.516;2024-02-21T11:25:09;10.40;99.90
60723;DHT22;46574;52.818;6.516;2024-02-21T11:27:38;10.40;99.90
60723;DHT22;46574;52.818;6.516;2024-02-21T11:30:05;10.30;99.90
60723;DHT22;46574;52.818;6.516;2024-02-21T11:32:31;10.40;99.90
60723;DHT22;46574;52.818;6.516;2024-02-21T11:34:58;10.40;99.90
60723;DHT22;46574;52.818;6.516;2024-02-21T11:37:34;10.40;99.90
60723;DHT22;46574;52.818;6.516;2024-02-21T11:40:02;10.30;99.90
60723;DHT22;46574;52.818;6.516;2024-02-21T11:42:29;10.30;99.90
60723;DHT22;46574;52.818;6.516;2024-02-21T11:44:59;10.40;99.90
60723;DHT22;46574;52.818;6.516;2024-02-21T11:47:25;10.40;99.90
60723;DHT22;46574;52.818;6.516;2024-02-21T11:49:54;10.40;99.90
60723;DHT22;46574;52.818;6.516;2024-02-21T11:52:23;10.40;99.90
60723;DHT22;46574;52.818;6.516;2024-02-21T11:54:53;10.40;99.90
60723;DHT22;46574;52.818;6.516;2024-02-21T11:57:20;10.40;99.90
60723;DHT22;46574;52.818;6.516;2024-02-21T11:59:46;10.40;99.90
60723;DHT22;46574;52.818;6.516;2024-02-21T12:02:12;10.30;99.90
60723;DHT22;46574;52.818;6.516;2024-02-21T12:04:39;10.30;99.90
60723;DHT22;46574;52.818;6.516;2024-02-21T12:07:05;10.30;99.90
60723;DHT22;46574;52.818;6.516;2024-02-21T12:09:31;10.30;99.90
60723;DHT22;46574;52.818;6.516;2024-02-21T12:11:58;10.30;99.90
60723;DHT22;46574;52.818;6.516;2024-02-21T12:14:25;10.40;99.90
60723;DHT22;46574;52.818;6.516;2024-02-21T12:16:51;10.30;99.90
60723;DHT22;46574;52.818;6.516;2024-02-21T12:19:17;10.40;99.90
60723;DHT22;46574;52.818;6.516;2024-02-21T12:21:43;10.40;99.90
60723;DHT22;46574;52.818;6.516;2024-02-21T12:24:13;10.40;99.90
60723;DHT22;46574;52.818;6.516;2024-02-21T12:26:40;10.30;99.90
60723;DHT22;46574;52.818;6.516;2024-02-21T12:29:05;10.40;99.90
60723;DHT22;46574;52.818;6.516;2024-02-21T12:31:31;10.40;99.90
60723;DHT22;46574;52.818;6.516;2024-02-21T12:33:57;10.50;99.90
60723;DHT22;46574;52.818;6.516;2024-02-21T12:36:23;10.50;99.90
60723;DHT22;46574;52.818;6.516;2024-02-21T12:38:49;10.50;99.90
60723;DHT22;46574;52.818;6.516;2024-02-21T12:41:15;10.50;99.90
60723;DHT22;46574;52.818;6.516;2024-02-21T12:43:41;10.40;99.90
60723;DHT22;46574;52.818;6.516;2024-02-21T12:46:07;10.40;99.90
60723;DHT22;46574;52.818;6.516;2024-02-21T12:48:33;10.40;99.90
60723;DHT22;46574;52.818;6.516;2024-02-21T12:50:59;10.40;99.90
60723;DHT22;46574;52.818;6.516;2024-02-21T12:53:25;10.40;99.90
60723;DHT22;46574;52.818;6.516;2024-02-21T12:55:51;10.40;99.90
60723;DHT22;46574;52.818;6.516;2024-02-21T12:58:17;10.40;99.90
60723;DHT22;46574;52.818;6.516;2024-02-21T13:00:42;10.40;99.90
60723;DHT22;46574;52.818;6.516;2024-02-21T13:03:08;10.50;99.90
60723;DHT22;46574;52.818;6.516;2024-02-21T13:05:37;10.50;99.90
60723;DHT22;46574;52.818;6.516;2024-02-21T13:08:08;10.60;99.90
60723;DHT22;46574;52.818;6.516;2024-02-21T13:10:34;10.60;99.90
60723;DHT22;46574;52.818;6.516;2024-02-21T13:13:01;10.70;99.90
60723;DHT22;46574;52.818;6.516;2024-02-21T13:15:27;10.70;99.90
60723;DHT22;46574;52.818;6.516;2024-02-21T13:17:56;10.70;99.90
60723;DHT22;46574;52.818;6.516;2024-02-21T13:20:23;10.70;99.90
60723;DHT22;46574;52.818;6.516;2024-02-21T13:22:49;10.60;99.90
60723;DHT22;46574;52.818;6.516;2024-02-21T13:25:15;10.50;99.90
60723;DHT22;46574;52.818;6.516;2024-02-21T13:27:44;10.50;99.90
60723;DHT22;46574;52.818;6.516;2024-02-21T13:30:10;10.60;99.90
60723;DHT22;46574;52.818;6.516;2024-02-21T13:32:36;10.70;99.90
60723;DHT22;46574;52.818;6.516;2024-02-21T13:35:02;10.70;99.90
60723;DHT22;46574;52.818;6.516;2024-02-21T13:37:28;10.70;99.90
60723;DHT22;46574;52.818;6.516;2024-02-21T13:39:54;10.70;99.90
60723;DHT22;46574;52.818;6.516;2024-02-21T13:42:20;10.70;99.90
60723;DHT22;46574;52.818;6.516;2024-02-21T13:44:46;10.60;99.90
60723;DHT22;46574;52.818;6.516;2024-02-21T13:47:15;10.60;99.90
60723;DHT22;46574;52.818;6.516;2024-02-21T13:49:41;10.60;99.90
60723;DHT22;46574;52.818;6.516;2024-02-21T13:52:07;10.60;99.90
60723;DHT22;46574;52.818;6.516;2024-02-21T13:54:34;10.60;99.90
60723;DHT22;46574;52.818;6.516;2024-02-21T13:57:00;10.50;99.90
60723;DHT22;46574;52.818;6.516;2024-02-21T13:59:28;10.50;99.90
60723;DHT22;46574;52.818;6.516;2024-02-21T14:01:53;10.40;99.90
60723;DHT22;46574;52.818;6.516;2024-02-21T14:04:19;10.50;99.90
60723;DHT22;46574;52.818;6.516;2024-02-21T14:06:45;10.40;99.90
60723;DHT22;46574;52.818;6.516;2024-02-21T14:09:14;10.40;99.90
60723;DHT22;46574;52.818;6.516;2024-02-21T14:11:39;10.40;99.90
60723;DHT22;46574;52.818;6.516;2024-02-21T14:14:06;10.30;99.90
60723;DHT22;46574;52.818;6.516;2024-02-21T14:16:32;10.30;99.90
60723;DHT22;46574;52.818;6.516;2024-02-21T14:18:58;10.30;99.90
60723;DHT22;46574;52.818;6.516;2024-02-21T14:21:24;10.30;99.90
60723;DHT22;46574;52.818;6.516;2024-02-21T14:23:50;10.30;99.90
60723;DHT22;46574;52.818;6.516;2024-02-21T14:26:16;10.30;99.90
60723;DHT22;46574;52.818;6.516;2024-02-21T14:28:41;10.30;99.90
60723;DHT22;46574;52.818;6.516;2024-02-21T14:31:07;10.30;99.90
60723;DHT22;46574;52.818;6.516;2024-02-21T14:33:37;10.40;99.90
60723;DHT22;46574;52.818;6.516;2024-02-21T14:36:03;10.40;99.90
60723;DHT22;46574;52.818;6.516;2024-02-21T14:38:29;10.40;99.90
60723;DHT22;46574;52.818;6.516;2024-02-21T14:40:54;10.30;99.90
60723;DHT22;46574;52.818;6.516;2024-02-21T14:43:20;10.30;99.90
60723;DHT22;46574;52.818;6.516;2024-02-21T14:45:49;10.30;99.90
60723;DHT22;46574;52.818;6.516;2024-02-21T14:48:14;10.30;99.90
60723;DHT22;46574;52.818;6.516;2024-02-21T14:50:40;10.30;99.90
60723;DHT22;46574;52.818;6.516;2024-02-21T14:53:07;10.30;99.90
60723;DHT22;46574;52.818;6.516;2024-02-21T14:55:35;10.30;99.90
60723;DHT22;46574;52.818;6.516;2024-02-21T14:58:01;10.30;99.90
60723;DHT22;46574;52.818;6.516;2024-02-21T15:00:27;10.30;99.90
60723;DHT22;46574;52.818;6.516;2024-02-21T15:02:59;10.30;99.90
60723;DHT22;46574;52.818;6.516;2024-02-21T15:05:25;10.30;99.90
60723;DHT22;46574;52.818;6.516;2024-02-21T15:07:52;10.30;99.90
60723;DHT22;46574;52.818;6.516;2024-02-21T15:10:18;10.30;99.90
60723;DHT22;46574;52.818;6.516;2024-02-21T15:12:47;10.30;99.90
60723;DHT22;46574;52.818;6.516;2024-02-21T15:15:13;10.30;99.90
60723;DHT22;46574;52.818;6.516;2024-02-21T15:17:39;10.20;99.90
60723;DHT22;46574;52.818;6.516;2024-02-21T15:20:06;10.30;99.90
60723;DHT22;46574;52.818;6.516;2024-02-21T15:22:36;10.30;99.90
60723;DHT22;46574;52.818;6.516;2024-02-21T15:25:04;10.30;99.90
60723;DHT22;46574;52.818;6.516;2024-02-21T15:27:38;10.30;99.90
60723;DHT22;46574;52.818;6.516;2024-02-21T15:30:04;10.30;99.90
60723;DHT22;46574;52.818;6.516;2024-02-21T15:32:30;10.30;99.90
60723;DHT22;46574;52.818;6.516;2024-02-21T15:34:56;10.30;99.90
60723;DHT22;46574;52.818;6.516;2024-02-21T15:37:21;10.30;99.90
60723;DHT22;46574;52.818;6.516;2024-02-21T15:39:47;10.30;99.90